Time;durP1;ratioP1;P1;durP2;ratioP2;P2;SDS_P1;SDS_P2;PMS_P1;PMS_P2;Temp;Humidity;BMP_temperature;BMP_pressure;BME280_temperature;BME280_humidity;BME280_pressure;Samples;Min_cycle;Max_cycle;Signal;HPM_P1;HPM_P2
2021/12/07 00:01:27;;;;;;;28.42;9.07;;;5.00;90.50;;;;;;5024941;28;20218;-85
2021/12/07 00:03:54;;;;;;;42.40;9.10;;;5.10;90.70;;;;;;5017525;28;20214;-85
2021/12/07 00:06:21;;;;;;;23.42;8.40;;;5.10;90.60;;;;;;5016461;28;20197;-85
2021/12/07 00:08:49;;;;;;;30.63;8.32;;;5.10;90.50;;;;;;5015470;28;20171;-84
2021/12/07 00:11:15;;;;;;;20.58;7.75;;;5.20;90.50;;;;;;5016023;28;20190;-85
2021/12/07 00:13:43;;;;;;;21.90;7.88;;;5.20;90.50;;;;;;5022142;28;20185;-84
2021/12/07 00:16:10;;;;;;;37.28;8.20;;;5.30;90.50;;;;;;5017745;28;20598;-85
2021/12/07 00:18:37;;;;;;;23.73;6.43;;;5.30;90.50;;;;;;5017379;28;20175;-85
2021/12/07 00:21:05;;;;;;;22.23;7.03;;;5.30;90.40;;;;;;5022882;28;20221;-85
2021/12/07 00:23:31;;;;;;;27.65;5.93;;;5.40;90.30;;;;;;5014808;28;20658;-85
2021/12/07 00:25:57;;;;;;;16.58;6.10;;;5.50;90.30;;;;;;5023398;28;20183;-86
2021/12/07 00:28:23;;;;;;;27.20;7.70;;;5.50;90.10;;;;;;5022892;28;20181;-86
2021/12/07 00:30:51;;;;;;;18.38;6.82;;;5.50;90.00;;;;;;5015330;28;20437;-85
2021/12/07 00:35:50;;;;;;;23.88;6.18;;;5.60;89.60;;;;;;5021997;28;20645;-84
2021/12/07 00:38:19;;;;;;;17.30;5.90;;;5.60;89.50;;;;;;5015612;28;20193;-84
2021/12/07 00:40:45;;;;;;;25.00;6.68;;;5.60;89.30;;;;;;5021436;28;20515;-85
2021/12/07 00:43:12;;;;;;;26.30;5.95;;;5.60;89.20;;;;;;5017843;28;20240;-86
2021/12/07 00:45:39;;;;;;;14.35;5.07;;;5.60;89.20;;;;;;5021247;28;20225;-85
2021/12/07 00:48:07;;;;;;;29.98;7.00;;;5.80;89.20;;;;;;5022426;28;20672;-86
2021/12/07 00:50:35;;;;;;;28.52;7.35;;;5.80;89.10;;;;;;5014377;28;20170;-85
2021/12/07 00:53:02;;;;;;;19.77;5.75;;;5.80;89.10;;;;;;5015958;28;20534;-85
2021/12/07 00:55:30;;;;;;;15.10;6.05;;;5.90;89.10;;;;;;5015455;28;20202;-85
2021/12/07 00:57:58;;;;;;;23.98;5.65;;;5.90;89.00;;;;;;5016548;28;20218;-85
2021/12/07 01:00:27;;;;;;;18.23;6.32;;;5.90;88.80;;;;;;5022083;28;20570;-86
2021/12/07 01:02:54;;;;;;;28.17;5.85;;;6.00;88.70;;;;;;5019317;28;20186;-84
2021/12/07 01:05:27;;;;;;;34.97;5.72;;;6.00;88.40;;;;;;5017396;28;20214;-85
2021/12/07 01:08:11;;;;;;;22.75;5.55;;;6.00;88.40;;;;;;5016904;28;20193;-86
2021/12/07 01:27:05;;;;;;;23.42;4.65;;;5.80;87.40;;;;;;5026754;28;20219;-85
2021/12/07 01:29:31;;;;;;;29.35;4.40;;;5.80;87.40;;;;;;5027779;28;20189;-85
2021/12/07 01:40:37;;;;;;;21.38;4.25;;;5.70;87.10;;;;;;5022525;28;20198;-85
2021/12/07 02:01:52;;;;;;;11.45;3.00;;;5.50;86.70;;;;;;5029484;28;20182;-85
2021/12/07 02:04:18;;;;;;;17.30;3.20;;;5.50;86.70;;;;;;5018460;28;20206;-84
2021/12/07 02:06:44;;;;;;;10.60;3.35;;;5.50;87.40;;;;;;5020064;28;20570;-85
2021/12/07 02:09:12;;;;;;;21.13;4.65;;;5.50;86.70;;;;;;5019327;28;20175;-85
2021/12/07 02:11:45;;;;;;;17.40;5.72;;;5.50;86.60;;;;;;5020621;28;20598;-85
2021/12/07 02:14:17;;;;;;;26.98;6.93;;;5.50;86.60;;;;;;5026644;28;20669;-84
2021/12/07 02:16:57;;;;;;;22.42;7.55;;;5.50;86.60;;;;;;5021598;28;20183;-85
2021/12/07 02:19:24;;;;;;;30.42;7.70;;;5.40;86.50;;;;;;5030086;28;20178;-84
2021/12/07 02:21:53;;;;;;;24.38;6.75;;;5.40;86.50;;;;;;5028685;28;20202;-84
2021/12/07 02:24:19;;;;;;;22.20;6.53;;;5.40;86.50;;;;;;5044171;28;20217;-85
2021/12/07 02:26:47;;;;;;;27.13;6.80;;;5.40;86.50;;;;;;5041678;28;20278;-85
2021/12/07 02:29:13;;;;;;;13.05;4.53;;;5.40;86.50;;;;;;5033502;28;20175;-85
2021/12/07 02:31:39;;;;;;;12.32;4.22;;;5.30;86.50;;;;;;5036977;28;20186;-85
2021/12/07 02:34:06;;;;;;;29.48;4.60;;;5.40;86.60;;;;;;5029959;28;20277;-84
2021/12/07 02:36:33;;;;;;;20.15;4.65;;;5.40;86.50;;;;;;5026994;28;20189;-85
2021/12/07 02:39:00;;;;;;;13.20;4.03;;;5.40;86.50;;;;;;5029756;28;20269;-85
2021/12/07 02:41:25;;;;;;;24.85;3.70;;;5.40;86.60;;;;;;5031755;28;20183;-85
2021/12/07 02:43:51;;;;;;;15.60;5.90;;;5.50;86.70;;;;;;5026799;28;20748;-85
2021/12/07 02:46:17;;;;;;;26.00;12.93;;;5.50;86.70;;;;;;5025119;28;20428;-85
2021/12/07 02:48:43;;;;;;;24.93;11.40;;;5.50;86.70;;;;;;5017088;28;20430;-85
2021/12/07 02:51:10;;;;;;;37.17;8.25;;;5.60;86.50;;;;;;5016897;28;20536;-85
2021/12/07 02:53:37;;;;;;;25.80;7.53;;;5.70;86.50;;;;;;5031434;28;20198;-85
2021/12/07 02:56:06;;;;;;;18.70;6.32;;;5.70;86.30;;;;;;5030922;28;20544;-85
2021/12/07 02:58:32;;;;;;;40.47;8.63;;;5.70;86.30;;;;;;5033798;28;20267;-84
2021/12/07 03:01:07;;;;;;;36.97;5.38;;;5.70;86.20;;;;;;5027912;28;20260;-85
2021/12/07 03:03:38;;;;;;;15.88;4.32;;;5.70;86.10;;;;;;5019171;28;20198;-84
2021/12/07 03:27:54;;;;;;;18.15;5.25;;;5.20;86.70;;;;;;5025535;28;20258;-86
2021/12/07 03:30:20;;;;;;;20.98;5.75;;;5.20;86.80;;;;;;5016169;28;20186;-85
2021/12/07 03:32:46;;;;;;;15.23;5.20;;;5.10;87.00;;;;;;5022905;28;20644;-85
2021/12/07 03:35:12;;;;;;;19.83;5.10;;;5.30;87.20;;;;;;5015043;28;20293;-85
2021/12/07 03:37:38;;;;;;;19.23;4.87;;;5.20;87.20;;;;;;5018071;28;20610;-85
2021/12/07 03:40:05;;;;;;;18.27;5.27;;;5.10;87.50;;;;;;5025312;28;20432;-85
2021/12/07 03:42:31;;;;;;;18.60;5.22;;;5.10;87.60;;;;;;5015520;28;20430;-85
2021/12/07 03:44:57;;;;;;;19.40;5.50;;;5.10;87.70;;;;;;5015220;28;20221;-86
2021/12/07 03:47:22;;;;;;;12.87;4.57;;;5.20;87.80;;;;;;5024438;28;20429;-85
2021/12/07 03:49:48;;;;;;;26.57;4.93;;;5.20;88.40;;;;;;5015940;28;20482;-86
2021/12/07 03:52:14;;;;;;;28.77;4.47;;;5.20;87.70;;;;;;5015619;28;20432;-84
2021/12/07 03:54:40;;;;;;;8.27;4.87;;;5.10;87.60;;;;;;5022282;28;20194;-85
2021/12/07 03:57:06;;;;;;;27.40;5.60;;;5.20;87.50;;;;;;5017799;28;20497;-85
2021/12/07 03:59:31;;;;;;;20.75;4.88;;;5.10;87.50;;;;;;5020285;28;20178;-85
2021/12/07 04:01:57;;;;;;;18.33;5.27;;;5.10;87.50;;;;;;5019099;28;20194;-86
2021/12/07 04:04:23;;;;;;;16.90;5.40;;;4.90;87.60;;;;;;5030709;28;20457;-85
2021/12/07 04:06:49;;;;;;;11.27;4.47;;;4.90;87.60;;;;;;5022118;28;20525;-85
2021/12/07 04:09:15;;;;;;;16.47;5.97;;;4.80;87.70;;;;;;5015591;28;20183;-84
2021/12/07 04:11:40;;;;;;;16.67;6.30;;;4.80;87.80;;;;;;5016921;28;20375;-85
2021/12/07 04:14:07;;;;;;;16.93;5.10;;;4.80;87.90;;;;;;5017922;28;20213;-86
2021/12/07 04:16:33;;;;;;;14.77;5.40;;;4.90;88.00;;;;;;5022544;28;20269;-84
2021/12/07 04:18:59;;;;;;;16.42;4.25;;;4.90;88.00;;;;;;5015428;28;20290;-84
2021/12/07 04:21:25;;;;;;;18.73;5.60;;;4.90;88.00;;;;;;5018030;28;20315;-85
2021/12/07 04:23:50;;;;;;;13.00;4.13;;;4.80;87.90;;;;;;5021892;28;20686;-85
2021/12/07 04:26:16;;;;;;;24.60;5.80;;;4.90;87.90;;;;;;5015579;28;20182;-85
2021/12/07 04:28:43;;;;;;;15.48;4.93;;;4.80;87.80;;;;;;5020352;28;20188;-84
2021/12/07 04:31:11;;;;;;;25.88;5.22;;;4.70;87.90;;;;;;5018371;28;20248;-85
2021/12/07 04:33:37;;;;;;;14.38;5.57;;;4.70;88.00;;;;;;5014859;28;20246;-84
2021/12/07 04:36:05;;;;;;;30.63;4.90;;;4.70;88.00;;;;;;5022799;28;20245;-85
2021/12/07 04:38:30;;;;;;;15.13;4.95;;;4.80;88.00;;;;;;5016768;28;20422;-85
2021/12/07 04:40:56;;;;;;;12.37;5.47;;;4.70;88.00;;;;;;5015411;28;20192;-85
2021/12/07 04:43:23;;;;;;;20.60;5.80;;;4.70;88.10;;;;;;5014295;28;20220;-85
2021/12/07 04:46:03;;;;;;;12.75;5.43;;;4.70;88.10;;;;;;5014893;28;20209;-85
2021/12/07 04:59:32;;;;;;;15.50;5.22;;;5.00;87.80;;;;;;5026293;28;20194;-84
2021/12/07 05:01:58;;;;;;;19.63;4.88;;;5.10;87.50;;;;;;5021425;28;20292;-85
2021/12/07 05:04:28;;;;;;;6.57;3.53;;;4.90;87.40;;;;;;5022850;28;20214;-85
2021/12/07 05:07:02;;;;;;;14.35;4.80;;;4.80;87.30;;;;;;5021518;28;20182;-85
2021/12/07 05:14:32;;;;;;;12.43;4.13;;;4.70;87.60;;;;;;5021722;28;20216;-84
2021/12/07 05:25:32;;;;;;;12.60;4.35;;;4.60;87.80;;;;;;5015983;28;20272;-84
2021/12/07 05:38:50;;;;;;;18.02;4.38;;;4.50;88.10;;;;;;5021684;28;20233;-85
2021/12/07 05:41:16;;;;;;;15.73;6.10;;;4.50;88.20;;;;;;5012594;28;20218;-85
2021/12/07 05:43:42;;;;;;;19.27;5.32;;;4.40;88.10;;;;;;5011947;28;20433;-87
2021/12/07 05:46:08;;;;;;;16.37;4.43;;;4.40;88.20;;;;;;5012395;28;20193;-85
2021/12/07 05:48:34;;;;;;;13.53;4.70;;;4.30;88.20;;;;;;5012879;28;20456;-85
2021/12/07 05:51:00;;;;;;;18.70;5.73;;;4.40;88.20;;;;;;5013902;28;20509;-84
2021/12/07 05:53:26;;;;;;;19.08;4.95;;;4.40;88.20;;;;;;5013174;28;20924;-84
2021/12/07 05:55:52;;;;;;;17.47;5.27;;;4.40;88.10;;;;;;5016536;28;20270;-85
2021/12/07 05:58:19;;;;;;;9.10;4.68;;;4.40;88.10;;;;;;5019402;28;20449;-86
2021/12/07 06:00:46;;;;;;;14.85;4.85;;;4.50;88.10;;;;;;5016153;28;20194;-85
2021/12/07 06:03:13;;;;;;;11.73;4.28;;;4.40;88.00;;;;;;5017025;28;20174;-85
2021/12/07 06:05:41;;;;;;;13.10;4.18;;;4.40;88.00;;;;;;5015425;28;20215;-85
2021/12/07 06:08:07;;;;;;;7.07;4.82;;;4.50;87.90;;;;;;5008677;28;20190;-84
2021/12/07 06:10:34;;;;;;;20.05;5.03;;;4.40;87.80;;;;;;5019003;28;20634;-86
2021/12/07 06:13:00;;;;;;;22.42;5.80;;;4.40;87.80;;;;;;5035754;28;20253;-85
2021/12/07 06:15:31;;;;;;;21.83;6.03;;;4.40;87.80;;;;;;5022115;28;20214;-84
2021/12/07 06:17:57;;;;;;;17.95;8.95;;;4.50;87.80;;;;;;5020549;28;20174;-84
2021/12/07 06:20:25;;;;;;;14.98;5.68;;;4.70;87.60;;;;;;5013414;28;20201;-85
2021/12/07 06:22:50;;;;;;;14.80;5.18;;;4.70;87.30;;;;;;5019539;28;20183;-85
2021/12/07 06:25:16;;;;;;;20.37;5.40;;;4.70;87.10;;;;;;5018650;28;20214;-83
2021/12/07 06:27:43;;;;;;;16.30;6.53;;;4.60;87.00;;;;;;5020422;28;20486;-83
2021/12/07 06:30:10;;;;;;;14.75;7.65;;;4.70;87.00;;;;;;5022830;28;20833;-84
2021/12/07 06:32:36;;;;;;;11.68;4.35;;;4.50;87.30;;;;;;5026835;28;20179;-83
2021/12/07 06:35:03;;;;;;;16.00;4.60;;;4.50;87.00;;;;;;5020230;28;20213;-84
2021/12/07 06:37:29;;;;;;;6.30;4.68;;;4.60;87.10;;;;;;5020972;28;20453;-84
2021/12/07 06:39:54;;;;;;;9.00;4.77;;;4.50;87.10;;;;;;5020163;28;20190;-85
2021/12/07 06:42:20;;;;;;;9.37;4.43;;;4.40;87.10;;;;;;5021983;28;20480;-85
2021/12/07 06:44:46;;;;;;;11.83;3.80;;;4.50;87.20;;;;;;5026450;28;20292;-83
2021/12/07 06:47:12;;;;;;;7.22;4.25;;;4.60;87.00;;;;;;5036600;28;20178;-83
2021/12/07 06:49:38;;;;;;;18.63;6.47;;;4.60;86.90;;;;;;5020667;28;20171;-84
2021/12/07 06:52:04;;;;;;;21.00;5.07;;;4.80;86.80;;;;;;5020110;28;20170;-84
2021/12/07 06:54:30;;;;;;;13.82;4.75;;;4.70;86.10;;;;;;5028194;28;20198;-86
2021/12/07 06:56:56;;;;;;;11.93;4.93;;;4.70;85.60;;;;;;5028667;28;20182;-85
2021/12/07 06:59:22;;;;;;;11.82;5.03;;;4.80;85.40;;;;;;5037489;28;20181;-85
2021/12/07 07:01:48;;;;;;;13.30;3.70;;;4.70;85.40;;;;;;5036295;28;20700;-85
2021/12/07 07:04:14;;;;;;;10.18;4.32;;;4.70;85.50;;;;;;5026619;28;20465;-85
2021/12/07 07:06:41;;;;;;;17.23;5.07;;;4.70;85.50;;;;;;5019083;28;20179;-85
2021/12/07 07:09:08;;;;;;;12.23;4.72;;;4.60;85.60;;;;;;5018077;28;20593;-86
2021/12/07 07:11:33;;;;;;;11.82;4.95;;;4.40;85.80;;;;;;5023264;28;20621;-85
2021/12/07 07:14:00;;;;;;;15.60;5.40;;;4.60;85.80;;;;;;5037635;28;20205;-85
2021/12/07 07:16:27;;;;;;;10.80;4.25;;;4.60;85.60;;;;;;5024220;28;20432;-82
2021/12/07 07:18:53;;;;;;;15.70;5.20;;;4.70;85.50;;;;;;5036158;28;20181;-82
2021/12/07 07:21:19;;;;;;;9.52;4.60;;;4.80;85.20;;;;;;5031676;28;20277;-82
2021/12/07 07:23:45;;;;;;;11.23;5.75;;;4.70;85.10;;;;;;5035936;28;20560;-82
2021/12/07 07:26:11;;;;;;;15.27;4.30;;;4.60;85.00;;;;;;5036628;28;20265;-82
2021/12/07 07:28:37;;;;;;;12.87;5.03;;;4.70;85.20;;;;;;5037934;28;20447;-81
2021/12/07 07:31:05;;;;;;;11.13;4.35;;;4.60;85.20;;;;;;5036179;28;20789;-82
2021/12/07 07:33:30;;;;;;;13.13;4.47;;;4.60;85.20;;;;;;5035867;28;20174;-82
2021/12/07 07:35:57;;;;;;;18.07;4.87;;;4.60;85.30;;;;;;5037797;28;20177;-81
2021/12/07 07:38:22;;;;;;;15.52;5.55;;;4.70;85.50;;;;;;5036207;28;20462;-81
2021/12/07 07:40:48;;;;;;;14.17;4.23;;;4.70;85.40;;;;;;5036683;28;20261;-81
2021/12/07 07:43:16;;;;;;;19.60;4.87;;;4.70;85.20;;;;;;5019693;28;20190;-82
2021/12/07 07:45:43;;;;;;;14.98;4.53;;;4.70;85.10;;;;;;5017329;28;20465;-82
2021/12/07 07:48:09;;;;;;;32.00;5.55;;;4.70;85.10;;;;;;5016427;28;20183;-81
2021/12/07 07:50:35;;;;;;;9.95;4.93;;;4.70;85.00;;;;;;5016381;28;20638;-81
2021/12/07 07:53:01;;;;;;;13.07;4.45;;;4.70;84.70;;;;;;5017196;28;20254;-82
2021/12/07 07:55:26;;;;;;;15.03;5.50;;;4.80;84.40;;;;;;5016497;28;20229;-81
2021/12/07 07:57:52;;;;;;;15.20;5.20;;;4.60;84.50;;;;;;5020318;28;20257;-80
2021/12/07 08:00:19;;;;;;;15.53;3.30;;;4.70;84.70;;;;;;5036649;28;20416;-81
2021/12/07 08:02:45;;;;;;;14.70;5.15;;;4.80;84.50;;;;;;5036508;28;20928;-81
2021/12/07 08:05:12;;;;;;;16.48;5.05;;;4.70;84.10;;;;;;5035896;28;20564;-81
2021/12/07 08:07:39;;;;;;;9.23;4.75;;;4.60;83.80;;;;;;5028384;28;20194;-82
2021/12/07 08:10:07;;;;;;;13.90;4.55;;;4.60;83.80;;;;;;5017630;28;20174;-80
2021/12/07 08:12:34;;;;;;;14.75;4.80;;;4.60;83.80;;;;;;5027033;28;20184;-81
2021/12/07 08:14:59;;;;;;;12.90;3.83;;;4.60;83.80;;;;;;5037317;28;20252;-82
2021/12/07 08:17:25;;;;;;;10.80;5.50;;;4.70;84.00;;;;;;5036859;28;20185;-82
2021/12/07 08:19:51;;;;;;;23.47;5.70;;;4.60;83.70;;;;;;5036554;28;20549;-81
2021/12/07 08:22:17;;;;;;;15.13;4.90;;;4.60;83.70;;;;;;5022204;28;20254;-81
2021/12/07 08:24:42;;;;;;;25.33;5.37;;;4.60;83.70;;;;;;5019424;28;20222;-81
2021/12/07 08:27:08;;;;;;;21.43;5.70;;;4.40;83.60;;;;;;5024651;28;20924;-81
2021/12/07 08:29:34;;;;;;;14.73;5.30;;;4.50;84.00;;;;;;5034430;28;20536;-81
2021/12/07 08:32:00;;;;;;;14.73;5.70;;;4.50;84.00;;;;;;5030561;28;20166;-81
2021/12/07 08:34:26;;;;;;;13.80;4.80;;;4.50;84.10;;;;;;5027990;28;20260;-82
2021/12/07 08:36:51;;;;;;;12.03;4.53;;;4.50;84.00;;;;;;5041492;28;20194;-79
2021/12/07 08:39:17;;;;;;;12.90;4.57;;;4.40;84.00;;;;;;5038036;28;20618;-80
2021/12/07 08:41:43;;;;;;;18.10;4.83;;;4.50;84.40;;;;;;5037236;28;20424;-80
2021/12/07 08:44:09;;;;;;;16.97;4.40;;;4.30;84.40;;;;;;5036759;28;20206;-80
2021/12/07 08:46:35;;;;;;;20.97;5.07;;;4.20;84.40;;;;;;5036322;28;20420;-80
2021/12/07 08:49:01;;;;;;;15.00;5.18;;;4.40;84.60;;;;;;5032564;28;20429;-81
2021/12/07 08:51:27;;;;;;;12.87;4.33;;;4.20;84.40;;;;;;5026068;28;20178;-79
2021/12/07 08:54:19;;;;;;;28.02;5.30;;;4.40;84.70;;;;;;5044514;28;20428;-80
2021/12/07 08:59:46;;;;;;;17.73;4.50;;;4.50;84.30;;;;;;5039488;28;20231;-80
2021/12/07 09:02:21;;;;;;;20.10;5.72;;;4.20;83.90;;;;;;5039225;28;20201;-81
2021/12/07 09:04:48;;;;;;;24.10;5.57;;;4.50;84.40;;;;;;5043893;28;20237;-80
2021/12/07 09:07:14;;;;;;;8.20;5.18;;;4.70;84.40;;;;;;5043710;28;20193;-80
2021/12/07 09:09:43;;;;;;;13.55;5.03;;;4.70;84.40;;;;;;5042909;28;20167;-80
2021/12/07 09:12:11;;;;;;;22.50;5.40;;;4.80;84.20;;;;;;5042456;28;20641;-81
2021/12/07 09:14:38;;;;;;;6.90;4.78;;;4.90;84.10;;;;;;5033882;28;20194;-81
2021/12/07 09:17:06;;;;;;;13.70;5.18;;;4.80;83.50;;;;;;5017626;28;20194;-80
2021/12/07 09:19:33;;;;;;;12.88;5.03;;;4.80;83.40;;;;;;5034996;28;20571;-82
2021/12/07 09:21:59;;;;;;;16.65;4.20;;;4.60;83.40;;;;;;5036932;28;20250;-81
2021/12/07 09:24:25;;;;;;;14.33;5.13;;;4.90;83.60;;;;;;5014009;28;20297;-81
2021/12/07 09:26:51;;;;;;;14.93;4.50;;;4.90;83.40;;;;;;5034617;28;20424;-81
2021/12/07 09:29:18;;;;;;;6.70;3.78;;;5.10;83.30;;;;;;5038276;28;20175;-82
2021/12/07 09:31:44;;;;;;;9.80;5.60;;;5.10;83.00;;;;;;5040524;28;20170;-82
2021/12/07 09:34:11;;;;;;;14.77;4.57;;;5.20;82.90;;;;;;5043635;28;20198;-81
2021/12/07 09:36:38;;;;;;;11.23;4.00;;;5.30;83.00;;;;;;5048308;28;20245;-82
2021/12/07 09:39:08;;;;;;;13.02;4.60;;;5.00;82.00;;;;;;5049110;28;20640;-82
2021/12/07 09:41:34;;;;;;;17.23;4.97;;;5.00;82.20;;;;;;5049591;28;20249;-81
2021/12/07 09:44:00;;;;;;;21.35;5.88;;;4.90;82.40;;;;;;5044746;28;20206;-81
2021/12/07 09:46:26;;;;;;;19.73;5.13;;;4.80;82.50;;;;;;5038704;28;20283;-81
2021/12/07 09:48:53;;;;;;;18.70;4.83;;;5.00;82.90;;;;;;5039423;28;20564;-80
2021/12/07 09:51:22;;;;;;;12.65;4.90;;;5.10;82.60;;;;;;5039790;28;20412;-81
2021/12/07 09:53:50;;;;;;;17.50;4.75;;;5.30;82.70;;;;;;5038700;28;20201;-81
2021/12/07 09:56:20;;;;;;;24.58;5.22;;;5.40;82.50;;;;;;5040537;28;20196;-80
2021/12/07 09:58:48;;;;;;;22.67;4.70;;;5.40;82.00;;;;;;5038217;28;20178;-81
2021/12/07 10:01:15;;;;;;;22.35;5.15;;;5.40;81.80;;;;;;5034509;28;20582;-81
2021/12/07 10:03:41;;;;;;;16.50;4.60;;;5.40;81.60;;;;;;5038225;28;20271;-81
2021/12/07 10:06:08;;;;;;;17.83;4.03;;;5.50;81.70;;;;;;5039676;28;20170;-81
2021/12/07 10:08:35;;;;;;;17.77;5.38;;;5.40;81.50;;;;;;5040024;28;20482;-82
2021/12/07 10:11:04;;;;;;;10.18;3.80;;;5.60;81.80;;;;;;5021214;28;20303;-81
2021/12/07 10:13:31;;;;;;;14.15;4.20;;;5.70;81.30;;;;;;5021482;28;20246;-81
2021/12/07 10:16:02;;;;;;;11.73;4.35;;;6.00;81.00;;;;;;5030960;28;20657;-81
2021/12/07 10:18:31;;;;;;;15.60;4.05;;;6.00;80.20;;;;;;5039265;28;20593;-81
2021/12/07 10:21:09;;;;;;;17.50;3.50;;;5.70;79.90;;;;;;5039010;28;20202;-81
2021/12/07 10:23:38;;;;;;;16.60;5.07;;;5.80;80.10;;;;;;5038135;28;20174;-80
2021/12/07 10:26:13;;;;;;;12.40;3.80;;;5.90;80.20;;;;;;5039804;28;20182;-81
2021/12/07 10:28:49;;;;;;;11.90;4.18;;;6.10;80.10;;;;;;5022525;28;20520;-81
2021/12/07 10:31:26;;;;;;;14.60;5.07;;;6.10;79.90;;;;;;5018570;28;20269;-81
2021/12/07 10:34:00;;;;;;;14.98;4.07;;;5.80;79.90;;;;;;5017845;28;20198;-81
2021/12/07 10:36:48;;;;;;;7.28;4.15;;;5.80;80.00;;;;;;5033709;28;20205;-81
2021/12/07 10:39:20;;;;;;;11.43;4.45;;;6.10;80.20;;;;;;5037019;28;20209;-81
2021/12/07 10:41:59;;;;;;;13.07;3.83;;;6.20;80.00;;;;;;5038185;28;20569;-80
2021/12/07 10:44:30;;;;;;;18.27;4.72;;;6.00;79.70;;;;;;5034154;28;20201;-81
2021/12/07 10:46:58;;;;;;;8.07;3.10;;;6.10;79.90;;;;;;5018783;28;20258;-81
2021/12/07 10:49:34;;;;;;;23.38;3.70;;;5.90;80.00;;;;;;5019076;28;20175;-80
2021/12/07 10:52:00;;;;;;;9.57;3.95;;;6.00;80.10;;;;;;5019187;28;20174;-80
2021/12/07 10:54:27;;;;;;;10.07;3.50;;;6.00;80.10;;;;;;5018598;28;20264;-80
2021/12/07 10:56:53;;;;;;;12.50;3.83;;;5.90;79.90;;;;;;5017799;28;20622;-80
2021/12/07 10:59:19;;;;;;;16.25;4.18;;;6.00;80.00;;;;;;5030360;28;20202;-82
2021/12/07 11:01:48;;;;;;;7.43;3.60;;;6.10;80.00;;;;;;5037639;28;20181;-82
2021/12/07 11:04:30;;;;;;;18.30;3.60;;;6.10;79.70;;;;;;5038708;28;20464;-81
2021/12/07 11:07:21;;;;;;;9.35;3.40;;;6.10;79.40;;;;;;5037553;28;20174;-82
2021/12/07 11:10:08;;;;;;;10.27;3.03;;;6.20;79.20;;;;;;5019424;28;20728;-82
2021/12/07 11:12:45;;;;;;;13.23;3.38;;;6.10;79.00;;;;;;5018072;28;20621;-81
2021/12/07 11:15:15;;;;;;;8.35;3.60;;;6.20;79.00;;;;;;5031258;28;20308;-81
2021/12/07 11:17:42;;;;;;;10.50;2.85;;;6.10;78.80;;;;;;5019389;28;20186;-81
2021/12/07 11:20:09;;;;;;;12.77;3.80;;;6.10;78.80;;;;;;5018522;28;20194;-81
2021/12/07 11:22:38;;;;;;;10.52;2.83;;;6.10;78.80;;;;;;5018292;28;20182;-82
2021/12/07 11:25:05;;;;;;;12.32;2.88;;;6.50;79.00;;;;;;5018559;28;20202;-81
2021/12/07 11:30:28;;;;;;;9.77;2.40;;;6.60;77.60;;;;;;5019626;28;20194;-82
2021/12/07 11:32:57;;;;;;;12.68;3.67;;;6.70;77.80;;;;;;5018286;28;20182;-82
2021/12/07 11:35:27;;;;;;;9.98;2.75;;;6.70;77.80;;;;;;5036761;28;20198;-82
2021/12/07 11:37:55;;;;;;;12.43;3.58;;;6.60;76.90;;;;;;5040220;28;20261;-83
2021/12/07 11:40:32;;;;;;;7.45;3.15;;;6.60;77.30;;;;;;5019444;28;20293;-82
2021/12/07 11:42:59;;;;;;;6.78;2.95;;;6.50;77.10;;;;;;5035354;28;20175;-80
2021/12/07 11:45:26;;;;;;;9.07;4.50;;;6.60;77.30;;;;;;5030370;28;20206;-80
2021/12/07 11:47:56;;;;;;;6.35;2.85;;;6.60;77.20;;;;;;5018924;28;20233;-80
2021/12/07 11:50:30;;;;;;;12.02;3.85;;;6.80;77.10;;;;;;5028023;28;20174;-81
2021/12/07 11:53:00;;;;;;;19.60;4.25;;;6.70;77.30;;;;;;5039074;28;20177;-81
2021/12/07 11:55:27;;;;;;;12.55;3.08;;;6.60;77.40;;;;;;5026314;28;20202;-80
2021/12/07 11:57:54;;;;;;;11.10;2.88;;;6.60;77.40;;;;;;5046430;28;20185;-81
2021/12/07 12:00:35;;;;;;;6.55;2.60;;;6.60;77.50;;;;;;5046276;28;20228;-80
2021/12/07 12:03:06;;;;;;;12.48;3.55;;;6.70;77.50;;;;;;5015004;28;20653;-81
2021/12/07 12:05:33;;;;;;;9.05;3.80;;;6.50;77.00;;;;;;5038703;28;20209;-80
2021/12/07 12:07:59;;;;;;;5.55;2.10;;;6.70;77.40;;;;;;5049226;28;20182;-82
2021/12/07 12:10:26;;;;;;;12.50;3.60;;;6.50;76.80;;;;;;5049310;28;20615;-81
2021/12/07 12:13:25;;;;;;;9.63;3.25;;;6.60;77.30;;;;;;5046570;28;20224;-80
2021/12/07 12:16:03;;;;;;;11.30;2.83;;;6.40;77.30;;;;;;5048962;28;20197;-81
2021/12/07 12:19:00;;;;;;;18.50;4.28;;;6.40;77.70;;;;;;5036961;28;20179;-82
2021/12/07 12:21:55;;;;;;;8.95;3.13;;;6.40;78.10;;;;;;5047089;28;20208;-81
2021/12/07 12:24:33;;;;;;;10.10;3.00;;;6.40;77.90;;;;;;5039435;28;20304;-81
2021/12/07 12:27:18;;;;;;;12.32;2.60;;;6.60;78.00;;;;;;5042406;28;20173;-81
2021/12/07 12:29:49;;;;;;;4.75;2.38;;;6.70;77.90;;;;;;5037905;28;20205;-81
2021/12/07 12:32:36;;;;;;;8.10;2.40;;;6.80;77.80;;;;;;5036279;28;20254;-82
2021/12/07 12:35:06;;;;;;;9.13;2.47;;;6.50;77.20;;;;;;5023037;28;20206;-82
2021/12/07 12:37:33;;;;;;;12.75;3.30;;;6.50;77.80;;;;;;5036565;28;20178;-82
2021/12/07 12:40:07;;;;;;;12.93;2.58;;;6.50;77.70;;;;;;5038126;28;20327;-80
2021/12/07 12:42:41;;;;;;;10.50;2.70;;;6.60;78.20;;;;;;5031048;28;20167;-82
2021/12/07 12:45:19;;;;;;;4.25;2.80;;;6.60;78.10;;;;;;5018344;28;20571;-81
2021/12/07 12:47:46;;;;;;;9.57;2.97;;;6.50;78.00;;;;;;5021163;28;20269;-81
2021/12/07 12:50:19;;;;;;;19.23;3.28;;;6.50;78.10;;;;;;5037848;28;20258;-81
2021/12/07 12:52:47;;;;;;;8.40;3.78;;;6.60;78.10;;;;;;5040592;28;20173;-82
2021/12/07 12:55:37;;;;;;;15.68;4.05;;;6.60;77.80;;;;;;5039368;28;20205;-82
2021/12/07 12:58:09;;;;;;;5.20;3.22;;;6.50;77.90;;;;;;5035515;28;20272;-81
2021/12/07 13:01:02;;;;;;;15.95;3.78;;;6.60;78.20;;;;;;5002955;28;20647;-82
2021/12/07 13:03:40;;;;;;;8.55;3.25;;;6.60;78.20;;;;;;5041594;28;20627;-81
2021/12/07 13:06:06;;;;;;;6.40;3.10;;;6.50;78.40;;;;;;5047160;28;20193;-81
2021/12/07 13:08:32;;;;;;;12.63;3.35;;;6.40;78.50;;;;;;5043696;28;20593;-82
2021/12/07 13:11:04;;;;;;;12.93;4.47;;;6.40;78.60;;;;;;5045848;28;20182;-81
2021/12/07 13:13:33;;;;;;;13.20;3.25;;;6.50;78.70;;;;;;5042310;28;20170;-82
2021/12/07 13:16:11;;;;;;;11.00;3.95;;;6.50;78.60;;;;;;5038336;28;20247;-82
2021/12/07 13:18:40;;;;;;;9.50;3.30;;;6.50;78.90;;;;;;5040665;28;20174;-82
2021/12/07 13:21:28;;;;;;;13.07;4.18;;;6.50;79.10;;;;;;5042071;28;20190;-82
2021/12/07 13:24:08;;;;;;;7.47;3.33;;;6.60;79.10;;;;;;5039940;28;20272;-81
2021/12/07 13:26:43;;;;;;;12.80;3.72;;;6.60;79.20;;;;;;5042108;28;20268;-82
2021/12/07 13:29:15;;;;;;;11.23;3.60;;;6.70;79.20;;;;;;5040776;28;20180;-81
2021/12/07 13:31:51;;;;;;;9.98;3.13;;;6.60;78.90;;;;;;5041342;28;20186;-82
2021/12/07 13:34:29;;;;;;;7.63;3.40;;;6.50;78.60;;;;;;5041565;28;20223;-82
2021/12/07 13:37:02;;;;;;;8.35;3.20;;;6.40;78.20;;;;;;5041081;28;20196;-81
2021/12/07 13:39:29;;;;;;;9.18;3.67;;;6.40;77.90;;;;;;5035512;28;20220;-81
2021/12/07 13:41:58;;;;;;;6.40;2.60;;;6.40;78.00;;;;;;5021750;28;20240;-82
2021/12/07 13:44:27;;;;;;;9.48;2.70;;;6.40;78.30;;;;;;5033490;28;20211;-81
2021/12/07 13:46:59;;;;;;;10.48;3.80;;;6.40;78.30;;;;;;5034655;28;20217;-81
2021/12/07 13:49:27;;;;;;;9.20;5.55;;;6.40;78.50;;;;;;5027009;28;20179;-80
2021/12/07 13:51:53;;;;;;;16.70;2.95;;;6.40;78.50;;;;;;5028554;28;20212;-81
2021/12/07 13:54:20;;;;;;;7.68;4.10;;;6.40;78.80;;;;;;5040941;28;20194;-80
2021/12/07 13:56:49;;;;;;;9.77;3.85;;;6.30;78.60;;;;;;5047482;28;20217;-82
2021/12/07 13:59:21;;;;;;;16.40;4.10;;;6.40;78.70;;;;;;5048966;28;20182;-81
2021/12/07 14:01:58;;;;;;;10.68;3.35;;;6.30;78.60;;;;;;5041005;28;20189;-81
2021/12/07 14:04:26;;;;;;;13.32;3.67;;;6.30;78.80;;;;;;5038998;28;20227;-82
2021/12/07 14:06:53;;;;;;;9.50;3.83;;;6.40;78.60;;;;;;5050372;28;20625;-81
2021/12/07 14:09:19;;;;;;;7.07;3.80;;;6.40;78.40;;;;;;5060796;28;20174;-81
2021/12/07 14:11:56;;;;;;;5.45;3.17;;;6.50;78.40;;;;;;5063438;28;20181;-81
2021/12/07 14:14:23;;;;;;;8.70;3.38;;;6.60;78.20;;;;;;5067298;28;20193;-81
2021/12/07 14:16:50;;;;;;;7.57;3.95;;;6.50;77.90;;;;;;5077065;28;20241;-81
2021/12/07 14:19:18;;;;;;;4.75;3.17;;;6.40;78.00;;;;;;5074307;28;20208;-80
2021/12/07 14:21:45;;;;;;;12.02;3.35;;;6.40;77.90;;;;;;5063824;28;20198;-81
2021/12/07 14:24:18;;;;;;;9.32;3.72;;;6.30;78.10;;;;;;5030424;28;20318;-81
2021/12/07 14:26:46;;;;;;;7.65;2.88;;;6.30;78.20;;;;;;5029257;28;20253;-81
2021/12/07 14:29:29;;;;;;;9.60;3.85;;;6.40;78.70;;;;;;5031313;28;20181;-80
2021/12/07 14:31:58;;;;;;;5.50;2.88;;;6.40;78.20;;;;;;5039309;28;20177;-80
2021/12/07 14:34:32;;;;;;;10.90;3.85;;;6.50;78.20;;;;;;5041064;28;20201;-80
2021/12/07 14:37:03;;;;;;;6.65;3.65;;;6.40;78.00;;;;;;5029901;28;20182;-80
2021/12/07 14:39:37;;;;;;;16.65;4.32;;;6.40;78.50;;;;;;5046647;28;20206;-81
2021/12/07 14:42:08;;;;;;;10.20;3.63;;;6.40;78.60;;;;;;5026758;28;20670;-82
2021/12/07 14:44:56;;;;;;;17.52;4.15;;;6.30;78.70;;;;;;5044002;28;20240;-81
2021/12/07 14:47:22;;;;;;;7.47;4.05;;;6.30;78.80;;;;;;5041287;28;20181;-81